Overview Statistics Trail Chart Weather Telemetry Raw packets
 

This is the latest recevied weather packets stored in our database for station/object IU5GBO-13. If no packets are shown the sender has not sent any weather packets the latest 10 day(s).

<< 3 4 5 6 7 8 9 >>
Time Temp. Humidity Pressure Rain* Wind** Luminosity Snow
1777991779 18.89° C 74% 1014.8 hPa - - - -
1777991178 19.44° C 74% 1014.8 hPa - - - -
1777990579 20° C 71% 1014.8 hPa - - - -
1777989978 20° C 72% 1014.7 hPa - - - -
1777989379 19.44° C 73% 1014.8 hPa - - - -
1777988778 20° C 72% 1014.9 hPa - - - -
1777988179 20.56° C 69% 1015 hPa - - - -
1777987578 20.56° C 69% 1015.1 hPa - - - -
1777986979 21.11° C 67% 1015 hPa - - - -
1777986378 21.67° C 66% 1015 hPa - - - -
1777985778 21.67° C 66% 1015 hPa - - - -
1777985179 21.11° C 68% 1015.1 hPa - - - -
1777984579 21.11° C 68% 1015.1 hPa - - - -
1777983979 20.56° C 69% 1015.2 hPa - - - -
1777983378 20.56° C 69% 1015.2 hPa - - - -
1777982778 20.56° C 69% 1015.2 hPa - - - -
1777981579 20.56° C 68% 1015.3 hPa - - - -
1777980978 21.11° C 68% 1015.4 hPa - - - -
1777980379 21.11° C 67% 1015.5 hPa - - - -
1777979779 21.11° C 66% 1015.3 hPa - - - -
1777979179 21.67° C 65% 1015.3 hPa - - - -
1777978579 21.67° C 65% 1015.3 hPa - - - -
1777977979 21.67° C 66% 1015.4 hPa - - - -
1777977379 21.67° C 65% 1015.4 hPa - - - -
1777976779 21.67° C 65% 1015.4 hPa - - - -

* Rain since midnight (hover to see other rain measurements)
** Current wind speed in m/s (hover to see current wind gust speed)